createdAt,value
2018-03-29T00:01:08.349Z,9.47
2018-03-29T00:03:36.702Z,10.75
2018-03-29T00:06:05.338Z,10.37
2018-03-29T00:08:33.648Z,12.13
2018-03-29T00:11:01.938Z,11.97
2018-03-29T00:13:30.347Z,11.03
2018-03-29T00:16:00.106Z,13.00
2018-03-29T00:18:29.367Z,12.13
2018-03-29T00:20:57.749Z,11.83
2018-03-29T00:23:25.999Z,12.20
2018-03-29T00:25:55.115Z,13.40
2018-03-29T00:28:23.645Z,11.97
2018-03-29T00:30:52.023Z,12.67
2018-03-29T00:33:20.348Z,12.57
2018-03-29T00:35:48.661Z,14.18
2018-03-29T00:38:16.921Z,13.03
2018-03-29T00:40:45.535Z,16.63
2018-03-29T00:43:13.844Z,16.00
2018-03-29T00:45:43.077Z,16.70
2018-03-29T00:48:12.503Z,18.17
2018-03-29T00:50:40.747Z,17.90
2018-03-29T00:53:26.887Z,19.67
2018-03-29T00:55:55.566Z,20.40
2018-03-29T00:58:23.958Z,19.60
2018-03-29T01:00:52.226Z,18.43
2018-03-29T01:03:20.483Z,18.13
2018-03-29T01:05:49.888Z,17.87
2018-03-29T01:08:18.685Z,17.67
2018-03-29T01:10:47.179Z,17.50
2018-03-29T01:13:15.545Z,18.67
2018-03-29T01:15:43.838Z,18.10
2018-03-29T01:18:12.343Z,19.08
2018-03-29T01:20:41.374Z,19.07
2018-03-29T01:23:09.817Z,18.50
2018-03-29T01:25:38.426Z,18.40
2018-03-29T01:28:06.956Z,18.37
2018-03-29T01:30:35.249Z,18.27
2018-03-29T01:33:04.336Z,16.57
2018-03-29T01:35:32.653Z,18.23
2018-03-29T01:38:01.214Z,16.93
2018-03-29T01:40:29.743Z,18.30
2018-03-29T01:42:58.025Z,18.63
2018-03-29T01:45:26.378Z,17.87
2018-03-29T01:47:54.728Z,17.27
2018-03-29T01:50:23.023Z,17.25
2018-03-29T01:52:51.342Z,17.40
2018-03-29T01:55:19.618Z,18.30
2018-03-29T01:57:47.959Z,17.33
2018-03-29T02:00:16.304Z,17.33
2018-03-29T02:02:44.725Z,17.53
2018-03-29T02:05:13.504Z,16.13
2018-03-29T02:07:41.885Z,16.33
2018-03-29T02:10:10.932Z,16.33
2018-03-29T02:12:40.008Z,16.67
2018-03-29T02:15:09.075Z,16.87
2018-03-29T02:17:37.416Z,16.20
2018-03-29T02:20:05.874Z,15.87
2018-03-29T02:22:34.134Z,15.52
2018-03-29T02:25:02.469Z,14.93
2018-03-29T02:27:30.773Z,13.47
2018-03-29T02:29:59.205Z,15.20
2018-03-29T02:32:28.399Z,14.83
2018-03-29T02:34:57.656Z,15.00
2018-03-29T02:37:25.926Z,14.15
2018-03-29T02:39:54.283Z,14.00
2018-03-29T02:42:22.783Z,15.27
2018-03-29T02:44:51.163Z,14.57
2018-03-29T02:47:19.454Z,14.90
2018-03-29T02:49:47.710Z,14.70
2018-03-29T02:52:16.104Z,14.13
2018-03-29T02:54:44.372Z,13.18
2018-03-29T02:57:12.794Z,13.97
2018-03-29T02:59:41.455Z,13.93
2018-03-29T03:02:09.900Z,12.27
2018-03-29T03:04:39.974Z,11.82
2018-03-29T03:07:10.275Z,11.70
2018-03-29T03:09:38.572Z,11.13
2018-03-29T03:12:07.598Z,11.77
2018-03-29T03:14:35.955Z,12.10
2018-03-29T03:17:04.286Z,11.87
2018-03-29T03:19:32.918Z,11.57
2018-03-29T03:22:01.492Z,12.55
2018-03-29T03:24:30.659Z,12.23
2018-03-29T03:26:59.048Z,12.00
2018-03-29T03:29:27.404Z,12.73
2018-03-29T03:31:55.703Z,11.23
2018-03-29T03:34:23.983Z,12.10
2018-03-29T03:36:53.084Z,12.67
2018-03-29T03:39:22.124Z,10.90
2018-03-29T03:41:50.418Z,12.00
2018-03-29T03:44:18.897Z,10.90
2018-03-29T03:46:47.193Z,11.27
2018-03-29T03:49:15.554Z,11.25
2018-03-29T03:51:43.970Z,12.60
2018-03-29T03:54:13.114Z,11.85
2018-03-29T03:56:41.479Z,11.90
2018-03-29T03:59:09.959Z,14.65
2018-03-29T04:01:38.407Z,14.10
2018-03-29T04:04:07.460Z,16.98
2018-03-29T04:06:35.982Z,17.53
2018-03-29T04:09:05.268Z,19.93
2018-03-29T04:11:33.595Z,20.93
2018-03-29T04:14:02.340Z,20.08
2018-03-29T04:16:30.627Z,20.03
2018-03-29T04:18:58.922Z,20.55
2018-03-29T04:21:27.252Z,21.80
2018-03-29T04:23:55.635Z,21.05
2018-03-29T04:26:23.925Z,20.63
2018-03-29T04:28:52.993Z,23.37
2018-03-29T04:31:21.245Z,22.27
2018-03-29T04:33:49.513Z,20.40
2018-03-29T04:36:17.822Z,21.80
2018-03-29T04:38:46.097Z,21.50
2018-03-29T04:41:14.418Z,21.33
2018-03-29T04:43:42.738Z,22.10
2018-03-29T04:46:11.160Z,21.27
2018-03-29T04:48:40.245Z,21.30
2018-03-29T04:51:09.339Z,20.97
2018-03-29T04:53:37.637Z,22.50
2018-03-29T04:56:05.952Z,21.57
2018-03-29T04:58:34.250Z,20.75
2018-03-29T05:01:03.282Z,21.80
2018-03-29T05:03:32.353Z,21.60
2018-03-29T05:06:01.358Z,21.70
2018-03-29T05:08:29.804Z,20.23
2018-03-29T05:10:58.088Z,20.17
2018-03-29T05:13:26.368Z,21.20
2018-03-29T05:15:54.647Z,20.60
2018-03-29T05:18:22.978Z,21.40
2018-03-29T05:20:51.239Z,20.25
2018-03-29T05:23:19.619Z,19.00
2018-03-29T05:25:47.988Z,18.30
2018-03-29T05:28:17.032Z,16.33
2018-03-29T05:30:45.531Z,18.10
2018-03-29T05:33:14.002Z,17.37
2018-03-29T05:35:42.308Z,17.13
2018-03-29T05:38:12.628Z,18.23
2018-03-29T05:40:41.850Z,17.20
2018-03-29T05:43:10.130Z,17.45
2018-03-29T05:45:38.448Z,17.60
2018-03-29T05:48:06.776Z,11.90
2018-03-29T05:50:35.050Z,17.17
2018-03-29T05:53:03.374Z,13.80
2018-03-29T05:55:31.794Z,13.53
2018-03-29T05:58:01.088Z,13.10
2018-03-29T06:00:30.294Z,17.92
2018-03-29T06:02:59.407Z,18.13
2018-03-29T06:05:29.074Z,17.87
2018-03-29T06:07:58.500Z,17.87
2018-03-29T06:10:28.719Z,17.83
2018-03-29T06:12:58.898Z,19.23
2018-03-29T06:15:33.469Z,21.40
2018-03-29T06:18:02.698Z,20.67
2018-03-29T06:20:31.203Z,21.27
2018-03-29T06:23:00.349Z,21.60
2018-03-29T06:25:28.743Z,19.83
2018-03-29T06:27:57.254Z,20.10
2018-03-29T06:30:25.639Z,22.37
2018-03-29T06:32:53.899Z,22.87
2018-03-29T06:35:22.280Z,21.87
2018-03-29T06:37:50.889Z,22.77
2018-03-29T06:40:19.303Z,22.87
2018-03-29T06:42:47.699Z,23.50
2018-03-29T06:45:16.424Z,22.27
2018-03-29T06:47:45.539Z,22.10
2018-03-29T06:50:13.991Z,24.03
2018-03-29T06:52:42.450Z,24.27
2018-03-29T06:55:10.790Z,23.10
2018-03-29T06:57:40.004Z,23.70
2018-03-29T07:00:08.521Z,23.63
2018-03-29T07:02:37.371Z,23.80
2018-03-29T07:05:06.674Z,23.63
2018-03-29T07:07:35.001Z,23.92
2018-03-29T07:10:03.531Z,24.93
2018-03-29T07:12:32.038Z,26.53
2018-03-29T07:15:00.510Z,25.23
2018-03-29T07:17:28.847Z,25.43
2018-03-29T07:19:57.944Z,24.60
2018-03-29T07:22:26.324Z,25.50
2018-03-29T07:24:54.619Z,25.43
2018-03-29T07:27:23.818Z,25.67
2018-03-29T07:29:53.576Z,25.17
2018-03-29T07:32:22.345Z,22.97
2018-03-29T07:34:50.915Z,27.13
2018-03-29T07:37:19.534Z,31.47
2018-03-29T07:39:47.851Z,25.10
2018-03-29T07:42:17.040Z,26.47
2018-03-29T07:44:46.270Z,24.50
2018-03-29T07:47:14.531Z,26.87
2018-03-29T07:49:43.775Z,27.10
2018-03-29T07:52:12.141Z,27.40
2018-03-29T07:54:40.492Z,27.43
2018-03-29T07:57:08.888Z,29.97
2018-03-29T07:59:37.200Z,27.27
2018-03-29T08:02:06.402Z,29.00
2018-03-29T08:04:37.312Z,28.97
2018-03-29T08:07:05.738Z,29.03
2018-03-29T08:09:34.806Z,29.27
2018-03-29T08:12:03.122Z,29.07
2018-03-29T08:14:32.155Z,29.43
2018-03-29T08:17:00.504Z,27.37
2018-03-29T08:19:28.810Z,27.53
2018-03-29T08:21:57.257Z,27.83
2018-03-29T08:24:25.571Z,26.87
2018-03-29T08:26:54.076Z,26.47
2018-03-29T08:29:22.486Z,22.20
2018-03-29T08:31:51.585Z,21.47
2018-03-29T08:34:19.901Z,19.73
2018-03-29T08:36:48.297Z,16.55
2018-03-29T08:39:16.756Z,15.07
2018-03-29T08:41:45.195Z,15.63
2018-03-29T08:44:13.714Z,13.50
2018-03-29T08:46:42.055Z,13.95
2018-03-29T08:49:11.275Z,13.73
2018-03-29T08:51:39.612Z,13.83
2018-03-29T08:54:08.009Z,13.00
2018-03-29T08:56:36.420Z,13.75
2018-03-29T08:59:04.895Z,14.23
2018-03-29T09:01:33.605Z,15.67
2018-03-29T09:04:01.890Z,15.83
2018-03-29T09:06:30.194Z,17.03
2018-03-29T09:08:59.275Z,17.50
2018-03-29T09:11:27.559Z,18.97
2018-03-29T09:13:56.727Z,20.13
2018-03-29T09:16:25.160Z,18.93
2018-03-29T09:18:53.466Z,21.07
2018-03-29T09:21:21.803Z,22.60
2018-03-29T09:23:50.986Z,24.80
2018-03-29T09:26:19.366Z,23.45
2018-03-29T09:28:47.708Z,25.90
2018-03-29T09:31:16.057Z,24.83
2018-03-29T09:33:44.417Z,24.40
2018-03-29T09:36:12.852Z,23.83
2018-03-29T09:38:41.131Z,26.33
2018-03-29T09:41:09.491Z,24.83
2018-03-29T09:43:37.820Z,25.13
2018-03-29T09:46:06.912Z,25.85
2018-03-29T09:48:36.100Z,25.88
2018-03-29T09:51:04.495Z,24.90
2018-03-29T09:53:33.687Z,26.23
2018-03-29T09:56:02.794Z,27.50
2018-03-29T09:58:32.014Z,27.10
2018-03-29T10:01:05.949Z,25.12
2018-03-29T10:03:45.045Z,28.13
2018-03-29T10:06:33.283Z,29.15
2018-03-29T10:09:01.653Z,30.67
2018-03-29T10:11:30.105Z,30.00
2018-03-29T10:14:00.390Z,31.80
2018-03-29T10:16:28.717Z,30.43
2018-03-29T10:18:57.878Z,32.80
2018-03-29T10:21:26.329Z,32.90
2018-03-29T10:23:54.647Z,33.70
2018-03-29T10:26:22.980Z,33.08
2018-03-29T10:28:51.330Z,35.57
2018-03-29T10:31:20.403Z,32.67
2018-03-29T10:33:49.530Z,31.93
2018-03-29T10:38:52.665Z,35.45
2018-03-29T10:41:20.981Z,34.85
2018-03-29T10:43:49.433Z,34.73
2018-03-29T10:46:17.801Z,33.20
2018-03-29T10:48:46.166Z,33.53
2018-03-29T10:51:16.078Z,34.90
2018-03-29T10:53:44.758Z,33.65
2018-03-29T10:56:14.079Z,32.27
2018-03-29T10:58:42.655Z,31.77
2018-03-29T11:01:11.316Z,33.50
2018-03-29T11:03:40.107Z,31.77
2018-03-29T11:06:08.504Z,32.40
2018-03-29T11:08:36.895Z,31.90
2018-03-29T11:11:05.231Z,30.13
2018-03-29T11:13:34.463Z,29.03
2018-03-29T11:16:02.835Z,25.33
2018-03-29T11:18:31.435Z,25.90
2018-03-29T11:20:59.761Z,22.63
2018-03-29T11:23:29.185Z,24.33
2018-03-29T11:25:57.770Z,22.63
2018-03-29T11:28:26.332Z,20.57
2018-03-29T11:30:55.661Z,18.90
2018-03-29T11:33:24.018Z,21.57
2018-03-29T11:35:52.625Z,18.00
2018-03-29T11:38:20.926Z,18.63
2018-03-29T11:40:49.390Z,14.65
2018-03-29T11:43:17.890Z,16.10
2018-03-29T11:45:46.248Z,15.95
2018-03-29T11:48:14.565Z,15.53
2018-03-29T11:50:42.980Z,15.03
2018-03-29T11:53:11.285Z,15.87
2018-03-29T11:55:39.591Z,15.47
2018-03-29T11:58:08.132Z,14.97
2018-03-29T12:00:36.478Z,14.63
2018-03-29T12:03:05.746Z,13.67
2018-03-29T12:05:34.048Z,15.17
2018-03-29T12:08:03.200Z,15.13
2018-03-29T12:10:31.552Z,13.63
2018-03-29T12:12:59.942Z,13.37
2018-03-29T12:15:28.327Z,14.63
2018-03-29T12:17:56.824Z,14.70
2018-03-29T12:20:25.192Z,13.97
2018-03-29T12:22:53.526Z,14.68
2018-03-29T12:25:23.765Z,13.55
2018-03-29T12:27:52.246Z,14.03
2018-03-29T12:30:20.645Z,13.03
2018-03-29T12:32:49.197Z,12.63
2018-03-29T12:35:17.545Z,12.27
2018-03-29T12:37:46.663Z,12.70
2018-03-29T12:40:15.786Z,12.48
2018-03-29T12:42:44.482Z,15.30
2018-03-29T12:45:12.935Z,13.73
2018-03-29T12:47:41.246Z,14.03
2018-03-29T12:50:09.595Z,13.50
2018-03-29T12:52:38.236Z,12.23
2018-03-29T12:55:24.066Z,12.93
2018-03-29T12:58:07.161Z,12.03
2018-03-29T13:00:35.472Z,12.00
2018-03-29T13:03:03.891Z,11.67
2018-03-29T13:05:32.419Z,13.03
2018-03-29T13:08:00.971Z,11.20
2018-03-29T13:10:30.073Z,2.90
2018-03-29T13:12:59.386Z,2.37
2018-03-29T13:15:28.636Z,2.10
2018-03-29T13:17:56.967Z,2.80
2018-03-29T13:20:26.074Z,3.47
2018-03-29T13:22:54.409Z,4.70
2018-03-29T13:25:23.578Z,7.03
2018-03-29T13:27:52.080Z,6.60
2018-03-29T13:30:20.515Z,6.67
2018-03-29T13:32:48.797Z,7.10
2018-03-29T13:35:17.150Z,5.73
2018-03-29T13:37:45.649Z,5.53
2018-03-29T13:40:13.979Z,5.63
2018-03-29T13:42:42.367Z,5.20
2018-03-29T13:45:10.750Z,4.75
2018-03-29T13:47:39.826Z,4.40
2018-03-29T13:50:08.150Z,4.43
2018-03-29T13:52:36.451Z,4.53
2018-03-29T13:55:04.745Z,4.35
2018-03-29T13:57:33.211Z,3.90
2018-03-29T14:00:02.002Z,3.40
2018-03-29T14:02:30.366Z,3.00
2018-03-29T14:04:58.739Z,3.10
2018-03-29T14:07:27.229Z,3.00
2018-03-29T14:09:55.544Z,3.90
2018-03-29T14:12:24.104Z,3.43
2018-03-29T14:14:52.493Z,4.10
2018-03-29T14:17:20.850Z,3.77
2018-03-29T14:19:49.192Z,4.45
2018-03-29T14:22:17.644Z,4.53
2018-03-29T14:24:45.977Z,4.03
2018-03-29T14:27:14.408Z,4.20
2018-03-29T14:29:44.661Z,5.07
2018-03-29T14:32:13.324Z,4.17
2018-03-29T14:34:41.836Z,5.00
2018-03-29T14:37:10.408Z,4.80
2018-03-29T14:39:38.724Z,4.97
2018-03-29T14:42:08.125Z,4.95
2018-03-29T14:44:36.757Z,5.00
2018-03-29T14:47:06.132Z,6.03
2018-03-29T14:49:35.663Z,6.03
2018-03-29T14:52:04.012Z,6.50
2018-03-29T14:54:32.353Z,6.07
2018-03-29T14:57:00.966Z,6.63
2018-03-29T14:59:29.308Z,6.00
2018-03-29T15:01:58.117Z,6.03
2018-03-29T15:04:26.413Z,5.60
2018-03-29T15:06:54.860Z,6.13
2018-03-29T15:09:23.605Z,5.73
2018-03-29T15:11:52.777Z,6.40
2018-03-29T15:14:21.233Z,6.30
2018-03-29T15:16:49.639Z,5.90
2018-03-29T15:19:18.049Z,5.13
2018-03-29T15:21:46.659Z,4.87
2018-03-29T15:24:14.943Z,4.77
2018-03-29T15:26:43.276Z,5.20
2018-03-29T15:29:12.473Z,5.37
2018-03-29T15:31:41.612Z,4.37
2018-03-29T15:34:11.846Z,4.70
2018-03-29T15:36:40.598Z,4.30
2018-03-29T15:39:09.065Z,3.23
2018-03-29T15:41:38.192Z,3.90
2018-03-29T15:44:06.708Z,3.40
2018-03-29T15:46:35.102Z,3.67
2018-03-29T15:49:03.431Z,3.40
2018-03-29T15:51:31.792Z,3.87
2018-03-29T15:54:00.211Z,4.30
2018-03-29T15:56:28.670Z,4.37
2018-03-29T15:58:57.276Z,4.40
2018-03-29T16:01:25.647Z,4.13
2018-03-29T16:03:53.990Z,5.93
2018-03-29T16:06:22.325Z,4.60
2018-03-29T16:08:50.759Z,5.07
2018-03-29T16:11:20.218Z,5.03
2018-03-29T16:13:49.442Z,5.87
2018-03-29T16:16:18.054Z,4.23
2018-03-29T16:18:46.449Z,4.55
2018-03-29T16:21:14.974Z,4.70
2018-03-29T16:23:44.575Z,5.80
2018-03-29T16:26:14.185Z,5.07
2018-03-29T16:28:43.291Z,4.77
2018-03-29T16:31:11.614Z,5.90
2018-03-29T16:33:40.142Z,4.50
2018-03-29T16:36:09.775Z,4.60
2018-03-29T16:38:38.151Z,4.20
2018-03-29T16:41:06.524Z,4.32
2018-03-29T16:43:34.945Z,5.07
2018-03-29T16:46:04.284Z,4.32
2018-03-29T16:48:33.491Z,5.43
2018-03-29T16:51:02.841Z,4.87
2018-03-29T16:53:31.285Z,5.37
2018-03-29T16:55:59.776Z,4.90
2018-03-29T16:58:28.433Z,5.43
2018-03-29T17:00:57.985Z,5.00
2018-03-29T17:03:27.488Z,4.77
2018-03-29T17:05:56.174Z,5.95
2018-03-29T17:08:26.328Z,5.40
2018-03-29T17:10:55.115Z,4.00
2018-03-29T17:13:24.274Z,5.70
2018-03-29T17:15:52.965Z,4.87
2018-03-29T17:18:21.461Z,6.10
2018-03-29T17:20:50.354Z,5.03
2018-03-29T17:23:18.917Z,4.47
2018-03-29T17:25:47.418Z,4.93
2018-03-29T17:28:16.571Z,4.77
2018-03-29T17:30:45.166Z,5.07
2018-03-29T17:33:13.478Z,4.30
2018-03-29T17:35:41.900Z,5.83
2018-03-29T17:38:10.240Z,5.50
2018-03-29T17:40:39.404Z,4.95
2018-03-29T17:43:07.802Z,5.80
2018-03-29T17:45:36.147Z,6.00
2018-03-29T17:48:04.589Z,6.20
2018-03-29T17:50:33.859Z,5.43
2018-03-29T17:53:02.304Z,6.63
2018-03-29T17:55:30.693Z,5.93
2018-03-29T17:57:59.113Z,6.45
2018-03-29T18:00:27.678Z,4.70
2018-03-29T18:02:57.785Z,5.13
2018-03-29T18:05:26.230Z,4.70
2018-03-29T18:07:54.707Z,5.33
2018-03-29T18:10:23.094Z,5.60
2018-03-29T18:12:51.679Z,4.90
2018-03-29T18:15:20.270Z,4.50
2018-03-29T18:17:48.717Z,4.85
2018-03-29T18:20:17.274Z,5.33
2018-03-29T18:22:46.519Z,5.05
2018-03-29T18:25:14.914Z,5.37
2018-03-29T18:27:43.286Z,5.90
2018-03-29T18:30:12.013Z,4.70
2018-03-29T18:32:41.242Z,4.90
2018-03-29T18:35:09.760Z,4.60
2018-03-29T18:37:38.163Z,5.53
2018-03-29T18:40:06.553Z,4.97
2018-03-29T18:42:35.754Z,6.60
2018-03-29T18:45:05.082Z,6.60
2018-03-29T18:47:33.584Z,5.90
2018-03-29T18:50:01.969Z,6.97
2018-03-29T18:52:30.477Z,6.47
2018-03-29T18:54:58.861Z,5.63
2018-03-29T18:57:28.206Z,6.12
2018-03-29T18:59:56.622Z,6.60
2018-03-29T19:02:26.296Z,5.90
2018-03-29T19:04:54.849Z,6.30
2018-03-29T19:07:23.217Z,7.40
2018-03-29T19:09:51.734Z,6.00
2018-03-29T19:12:20.296Z,7.00
2018-03-29T19:14:48.642Z,6.80
2018-03-29T19:17:17.902Z,6.68
2018-03-29T19:19:46.272Z,6.90
2018-03-29T19:22:14.721Z,6.20
2018-03-29T19:24:43.284Z,72.93
2018-03-29T19:27:12.948Z,49.87
2018-03-29T19:29:41.282Z,16.00
2018-03-29T19:32:09.758Z,7.62
2018-03-29T19:34:38.454Z,7.37
2018-03-29T19:37:06.823Z,7.47
2018-03-29T19:39:35.329Z,7.80
2018-03-29T19:42:03.698Z,7.77
2018-03-29T19:44:32.329Z,6.85
2018-03-29T19:47:00.677Z,7.80
2018-03-29T19:49:29.032Z,5.40
2018-03-29T19:51:57.409Z,5.95
2018-03-29T19:54:25.993Z,7.63
2018-03-29T19:56:54.386Z,6.13
2018-03-29T19:59:22.837Z,7.10
2018-03-29T20:01:51.220Z,7.03
2018-03-29T20:04:19.564Z,8.13
2018-03-29T20:06:48.117Z,8.00
2018-03-29T20:09:16.653Z,6.80
2018-03-29T20:11:45.201Z,7.22
2018-03-29T20:14:13.662Z,7.00
2018-03-29T20:16:42.071Z,7.37
2018-03-29T20:19:10.410Z,7.23
2018-03-29T20:21:38.910Z,6.87
2018-03-29T20:24:07.357Z,8.37
2018-03-29T20:26:37.146Z,7.75
2018-03-29T20:29:05.748Z,10.60
2018-03-29T20:31:34.122Z,8.20
2018-03-29T20:34:02.492Z,26.07
2018-03-29T20:36:31.044Z,70.40
2018-03-29T20:38:59.493Z,19.53
2018-03-29T20:41:27.957Z,11.20
2018-03-29T20:43:56.474Z,11.65
2018-03-29T20:46:24.958Z,8.77
2018-03-29T20:48:53.459Z,10.50
2018-03-29T20:51:22.840Z,8.53
2018-03-29T20:53:51.398Z,9.07
2018-03-29T20:56:19.912Z,9.98
2018-03-29T20:58:48.475Z,8.63
2018-03-29T21:01:18.471Z,8.50
2018-03-29T21:03:46.969Z,10.00
2018-03-29T21:06:15.541Z,8.97
2018-03-29T21:08:43.970Z,9.47
2018-03-29T21:11:13.154Z,10.77
2018-03-29T21:13:42.385Z,7.30
2018-03-29T21:16:10.954Z,8.90
2018-03-29T21:18:39.472Z,8.25
2018-03-29T21:21:07.952Z,8.60
2018-03-29T21:23:36.415Z,10.37
2018-03-29T21:26:04.788Z,8.23
2018-03-29T21:28:33.253Z,9.77
2018-03-29T21:31:02.682Z,7.93
2018-03-29T21:33:31.142Z,7.50
2018-03-29T21:35:59.642Z,7.50
2018-03-29T21:38:28.268Z,9.07
2018-03-29T21:40:56.628Z,9.27
2018-03-29T21:43:25.001Z,9.88
2018-03-29T21:45:53.474Z,8.93
2018-03-29T21:48:21.800Z,7.97
2018-03-29T21:50:51.029Z,9.30
2018-03-29T21:53:19.591Z,8.00
2018-03-29T21:55:48.766Z,7.70
2018-03-29T21:58:17.081Z,8.20
2018-03-29T22:00:46.280Z,8.80
2018-03-29T22:03:14.615Z,8.73
2018-03-29T22:05:43.064Z,8.60
2018-03-29T22:08:11.362Z,8.60
2018-03-29T22:10:40.000Z,8.80
2018-03-29T22:13:08.339Z,9.57
2018-03-29T22:15:36.818Z,9.30
2018-03-29T22:18:05.132Z,8.70
2018-03-29T22:20:33.471Z,7.83
2018-03-29T22:23:01.823Z,8.57
2018-03-29T22:25:30.255Z,8.90
2018-03-29T22:27:58.619Z,8.30
2018-03-29T22:30:27.236Z,8.07
2018-03-29T22:32:55.564Z,7.70
2018-03-29T22:35:23.921Z,8.52
2018-03-29T22:37:52.247Z,8.70
2018-03-29T22:40:21.363Z,8.37
2018-03-29T22:42:49.689Z,8.47
2018-03-29T22:45:18.042Z,6.67
2018-03-29T22:47:46.816Z,9.23
2018-03-29T22:50:15.202Z,9.63
2018-03-29T22:52:43.523Z,8.00
2018-03-29T22:55:11.960Z,7.82
2018-03-29T22:57:40.312Z,7.27
2018-03-29T23:00:09.848Z,7.20
2018-03-29T23:02:38.406Z,7.67
2018-03-29T23:05:06.719Z,8.05
2018-03-29T23:07:35.066Z,7.63
2018-03-29T23:10:03.599Z,8.17
2018-03-29T23:12:32.108Z,7.20
2018-03-29T23:15:01.461Z,7.20
2018-03-29T23:17:29.863Z,7.73
2018-03-29T23:19:58.228Z,7.10
2018-03-29T23:22:26.583Z,6.93
2018-03-29T23:24:54.947Z,8.30
2018-03-29T23:27:23.342Z,7.53
2018-03-29T23:29:51.697Z,6.90
2018-03-29T23:32:20.100Z,7.93
2018-03-29T23:34:48.547Z,7.80
2018-03-29T23:37:16.882Z,6.50
2018-03-29T23:39:45.164Z,6.90
2018-03-29T23:42:13.537Z,6.15
2018-03-29T23:44:41.990Z,7.00
2018-03-29T23:47:10.427Z,7.93
2018-03-29T23:49:39.704Z,6.93
2018-03-29T23:52:08.141Z,6.95
2018-03-29T23:54:36.426Z,7.60
2018-03-29T23:57:07.752Z,7.10
2018-03-29T23:59:36.049Z,6.90
